Brevard, NC (28712)

7:25 PM EDT on May 24, 2015 (GMT -0400)
Connestee Fire Walnut Hollow Station | | Change Station
CLOSE
Current Station
Personal Weather Station
Location: Brevard, NC
Elevation: 2543 ft
Nearby Weather Stations

Elev 2543 ft 35.15 °N, 82.77 °W | Updated 6 seconds ago

Clear
Clear
71.1 °F
Feels Like 77 °F
N
3.0
Wind Variable Wind from East
Gusts 6.0 mph

Today
High -- | Low -- °F
--% Chance of Precip.
Yesterday
High -- | Low -- °F
Precip. -- in
6:21 AM 8:34 PM
Waxing Crescent, 43% visible
Pressure 30.27 in
Visibility 10.0 miles
Clouds Clear
Heat Index 77 °F
Dew Point 54 °F
Humidity 54%
Rainfall 0.00 in
Snow Depth Not available.
UV 1 out of 12
Pollen 7.30 out of 12
Air Quality Not available.
Flu Activity No Activity
METAR KAVL 242254Z 16009KT 10SM CLR 23/08 A3032 RMK AO2 SLP251 T02330083 $

More Conditions Fewer Conditions

Pressure 30.27 in
Visibility 10.0 miles
Clouds Clear
Heat Index 77 °F
Dew Point 54 °F
Humidity 54%
Rainfall 0.00 in
Snow Depth Not available.
UV 1 out of 12
Pollen 7.30 out of 12
Air Quality Not available.
Flu Activity No Activity
METAR KAVL 242254Z 16009KT 10SM CLR 23/08 A3032 RMK AO2 SLP251 T02330083 $

More Conditions Fewer Conditions

10-Day Weather Forecast

Almanac

Astronomy

May. 24, 2015 Rise Set
Actual Time
Civil Twilight
Nautical Twilight
Astronomical Twilight
Moon
Length of Visible Light
Length of Day
Tomorrow will be .
, % of the Moon is Illuminated

Today's Extremes

State Highs State Lows

Community

WunderPhotos

Upload Photos

1,823,892 photos uploaded!

WunderBlogs® & News

Nearby

Air Quality

  Air Quality AQ Index Pollutant
Not available.

Snow Depth

Station Depth Elevation

Earthquake Activity

City Distance Mag. Time & Date
Minimum magnitude displayed is 2.5.

Coastal Water Temperatures

Place Temperature

Stations

Nearby Weather Stations

Station Location Temp. Windchill Dew Point Humidity Wind Precip. Elev Updated Type